メインページ
METAR-TAF:

METAR-TAF

空港 :

ポンタ・デルガダ空港

ポンタ・デルガダ, アゾレス諸島, ポルトガル

緯度: 37-44N, 経度: 025-42W, 海抜: 71m

現時点の気象観測

当レポートは20分前の09:00(UTC)に作成
西の風 6kt
気温 21°C
湿度 83%
気圧 1025 hPa
視程10km以上
高度2200ftの雲はほとんどない

METAR: LPPD 200900Z 27006KT 9999 FEW022 21/18 Q1025

時間: 09:20 (09:20 UTC)

予報

当レポートは4時間20分前の05:00(UTC)に作成
予報は20日の 06時(UTC)から 21日の 06時(UTC)まで有効
変向風 5kt
視程10km以上
高度2500ftの雲はほとんどない
20日の 06時(UTC)から 20日の 19時(UTC)まで一時的に
高度2000ftの雲はほとんどない
高度3500ftの千切れ雲あり
20日の 09時(UTC)から 20日の 11時(UTC)まで徐々に
西/南西の風 8kt
20日の 13時(UTC)から 20日の 15時(UTC)まで徐々に
西の風 13kt
20日の 19時(UTC)から 20日の 22時(UTC)まで徐々に
変向風 5kt
高度1200ftの雲は散在している
20日の 22時(UTC)から 21日の 06時(UTC)まで一時的に
視程: 5000m
高度300ftの千切れ雲あり
霧雨, 雨

TAF: LPPD 200500Z 2006/2106 VRB05KT 9999 FEW025 TEMPO 2006/2019 FEW020 BKN035 BECMG 2009/2011 25008KT BECMG 2013/2015 28013KT BECMG 2019/2022 VRB05KT SCT012 TEMPO 2022/2106 5000 DZRA BKN003

4,000以上の空港の気象観測と天気予報(METAR報とTAF報)

利用可能な観測所は地図上に黄色い丸と赤い丸で示す。

丸の上にカーソルを重ねると観測所名を参照できる。

次にクリックすると気象観測と天気予報を参照できる。

マップの切り替え:黒色「×」印の緑ボタンをクリックして拡大、「-」印の緑ボタンをクリックして縮小、緑色の三角印をクリックして隣りの地図に切り替え


METAR-TAF: